createdAt,value
2023-04-03T00:00:25.191Z,71.47
2023-04-03T00:02:55.480Z,71.28
2023-04-03T00:05:26.295Z,71.34
2023-04-03T00:07:56.711Z,71.32
2023-04-03T00:10:27.142Z,71.38
2023-04-03T00:12:57.567Z,71.55
2023-04-03T00:15:28.686Z,71.35
2023-04-03T00:17:58.601Z,71.40
2023-04-03T00:20:29.431Z,71.54
2023-04-03T00:22:59.720Z,71.12
2023-04-03T00:25:30.210Z,71.73
2023-04-03T00:28:00.897Z,71.50
2023-04-03T00:30:31.261Z,71.45
2023-04-03T00:33:01.695Z,71.13
2023-04-03T00:35:32.776Z,71.14
2023-04-03T00:38:03.622Z,71.28
2023-04-03T00:40:40.434Z,71.10
2023-04-03T00:43:20.113Z,71.24
2023-04-03T00:45:54.208Z,71.45
2023-04-03T00:48:29.437Z,71.42
2023-04-03T00:51:01.991Z,71.02
2023-04-03T00:53:40.737Z,71.08
2023-04-03T00:56:14.278Z,70.90
2023-04-03T00:58:52.318Z,70.96
2023-04-03T01:01:27.354Z,71.25
2023-04-03T01:03:58.059Z,71.22
2023-04-03T01:06:35.329Z,71.19
2023-04-03T01:09:10.301Z,71.10
2023-04-03T01:11:40.558Z,70.44
2023-04-03T01:14:10.816Z,70.61
2023-04-03T01:16:41.046Z,70.55
2023-04-03T01:19:19.124Z,70.54
2023-04-03T01:22:04.561Z,70.81
2023-04-03T01:24:38.675Z,70.23
2023-04-03T01:27:14.110Z,70.15
2023-04-03T01:29:48.336Z,69.92
2023-04-03T01:32:18.617Z,69.83
2023-04-03T01:34:49.121Z,69.87
2023-04-03T01:37:19.378Z,69.52
2023-04-03T01:39:49.577Z,69.23
2023-04-03T01:42:19.818Z,69.26
2023-04-03T01:44:50.945Z,68.91
2023-04-03T01:47:21.320Z,67.25
2023-04-03T01:49:51.669Z,67.25
2023-04-03T01:52:21.898Z,67.02
2023-04-03T01:54:52.157Z,66.96
2023-04-03T01:57:22.627Z,66.82
2023-04-03T01:59:52.916Z,65.51
2023-04-03T02:02:23.699Z,65.11
2023-04-03T02:04:55.521Z,65.53
2023-04-03T02:07:25.987Z,65.13
2023-04-03T02:09:56.233Z,65.96
2023-04-03T02:12:26.489Z,65.61
2023-04-03T02:14:56.727Z,65.60
2023-04-03T02:17:27.007Z,65.76
2023-04-03T02:19:58.656Z,65.77
2023-04-03T02:22:28.961Z,65.55
2023-04-03T02:24:59.163Z,63.62
2023-04-03T02:27:29.836Z,63.05
2023-04-03T02:30:00.031Z,61.79
2023-04-03T02:32:30.379Z,61.93
2023-04-03T02:35:00.926Z,60.94
2023-04-03T02:37:31.664Z,60.34
2023-04-03T02:40:02.844Z,59.05
2023-04-03T02:42:33.385Z,57.62
2023-04-03T02:45:06.375Z,56.40
2023-04-03T02:47:37.029Z,58.40
2023-04-03T02:50:07.738Z,58.64
2023-04-03T02:52:38.320Z,57.66
2023-04-03T02:55:09.130Z,57.10
2023-04-03T02:57:39.461Z,57.08
2023-04-03T03:00:10.362Z,56.59
2023-04-03T03:02:40.524Z,55.85
2023-04-03T03:05:12.098Z,54.74
2023-04-03T03:07:42.848Z,55.83
2023-04-03T03:10:13.234Z,55.57
2023-04-03T03:12:44.830Z,55.84
2023-04-03T03:15:15.433Z,56.43
2023-04-03T03:17:45.868Z,55.95
2023-04-03T03:20:18.601Z,55.23
2023-04-03T03:22:48.995Z,55.52
2023-04-03T03:25:19.334Z,55.54
2023-04-03T03:27:49.844Z,55.71
2023-04-03T03:30:20.194Z,55.65
2023-04-03T03:32:51.294Z,55.14
2023-04-03T03:35:21.545Z,54.88
2023-04-03T03:37:52.965Z,55.24
2023-04-03T03:40:23.404Z,55.43
2023-04-03T03:42:54.007Z,54.77
2023-04-03T03:45:24.422Z,54.67
2023-04-03T03:47:54.665Z,53.38
2023-04-03T03:50:24.938Z,53.35
2023-04-03T03:52:55.403Z,53.10
2023-04-03T03:55:25.740Z,53.13
2023-04-03T03:57:58.474Z,51.64
2023-04-03T04:00:31.586Z,52.72
2023-04-03T04:03:02.226Z,52.30
2023-04-03T04:05:35.290Z,51.80
2023-04-03T04:08:06.517Z,51.35
2023-04-03T04:10:39.311Z,51.24
2023-04-03T04:13:10.834Z,50.94
2023-04-03T04:15:41.342Z,51.41
2023-04-03T04:18:11.681Z,51.44
2023-04-03T04:20:44.433Z,51.10
2023-04-03T04:23:14.638Z,51.65
2023-04-03T04:25:45.019Z,51.52
2023-04-03T04:28:15.788Z,51.70
2023-04-03T04:30:47.178Z,51.86
2023-04-03T04:33:19.756Z,51.66
2023-04-03T04:35:52.076Z,51.91
2023-04-03T04:38:24.567Z,51.73
2023-04-03T04:40:56.793Z,51.08
2023-04-03T04:43:28.034Z,51.19
2023-04-03T04:46:14.913Z,50.90
2023-04-03T04:48:53.166Z,51.43
2023-04-03T04:51:25.541Z,51.92
2023-04-03T04:53:56.123Z,51.16
2023-04-03T04:56:28.754Z,50.44
2023-04-03T04:59:00.329Z,50.85
2023-04-03T05:01:31.218Z,50.26
2023-04-03T05:04:08.494Z,50.43
2023-04-03T05:06:39.139Z,50.50
2023-04-03T05:09:14.124Z,49.71
2023-04-03T05:11:46.600Z,49.16
2023-04-03T05:14:19.026Z,49.45
2023-04-03T05:16:51.582Z,49.93
2023-04-03T05:19:24.787Z,49.85
2023-04-03T05:21:55.312Z,49.56
2023-04-03T05:24:25.955Z,48.98
2023-04-03T05:26:56.386Z,49.26
2023-04-03T05:29:27.072Z,49.02
2023-04-03T05:31:58.838Z,49.33
2023-04-03T05:34:29.629Z,49.25
2023-04-03T05:37:00.428Z,49.04
2023-04-03T05:39:32.016Z,48.96
2023-04-03T05:42:04.023Z,49.08
2023-04-03T05:44:34.277Z,48.71
2023-04-03T05:47:05.546Z,48.29
2023-04-03T05:49:36.564Z,48.34
2023-04-03T05:52:06.985Z,48.31
2023-04-03T05:54:37.227Z,47.96
2023-04-03T05:57:22.027Z,48.08
2023-04-03T05:59:52.526Z,48.04
2023-04-03T06:02:26.967Z,47.41
2023-04-03T06:04:57.597Z,47.09
2023-04-03T06:07:31.747Z,47.69
2023-04-03T06:10:01.967Z,45.94
2023-04-03T06:12:33.267Z,45.58
2023-04-03T06:15:03.486Z,45.23
2023-04-03T06:17:43.988Z,45.27
2023-04-03T06:20:15.557Z,45.79
2023-04-03T06:22:46.210Z,45.87
2023-04-03T06:25:16.446Z,45.97
2023-04-03T06:27:46.799Z,45.78
2023-04-03T06:30:17.506Z,45.64
2023-04-03T06:32:48.000Z,45.31
2023-04-03T06:35:18.384Z,45.89
2023-04-03T06:37:48.983Z,45.66
2023-04-03T06:40:26.640Z,46.10
2023-04-03T06:42:57.357Z,45.51
2023-04-03T06:45:28.895Z,45.94
2023-04-03T06:47:59.312Z,46.18
2023-04-03T06:50:29.879Z,46.15
2023-04-03T06:53:00.198Z,46.10
2023-04-03T06:55:31.000Z,46.54
2023-04-03T06:58:01.343Z,47.20
2023-04-03T07:00:31.776Z,46.22
2023-04-03T07:03:02.050Z,46.42
2023-04-03T07:05:32.477Z,46.40
2023-04-03T07:08:03.090Z,46.67
2023-04-03T07:10:34.116Z,46.09
2023-04-03T07:13:05.368Z,46.31
2023-04-03T07:15:35.776Z,46.19
2023-04-03T07:18:06.224Z,46.04
2023-04-03T07:20:36.762Z,46.05
2023-04-03T07:23:07.400Z,45.87
2023-04-03T07:25:38.148Z,46.23
2023-04-03T07:28:08.689Z,46.51
2023-04-03T07:30:45.693Z,46.50
2023-04-03T07:33:18.087Z,46.38
2023-04-03T07:35:49.276Z,46.16
2023-04-03T07:38:19.891Z,45.91
2023-04-03T07:40:51.876Z,45.94
2023-04-03T07:43:23.611Z,45.92
2023-04-03T07:45:54.439Z,45.70
2023-04-03T07:48:29.145Z,46.90
2023-04-03T07:51:04.560Z,46.86
2023-04-03T07:53:35.730Z,48.39
2023-04-03T07:56:06.211Z,48.95
2023-04-03T07:58:36.642Z,49.96
2023-04-03T08:06:02.771Z,51.69
2023-04-03T08:08:51.463Z,52.07
2023-04-03T08:11:22.343Z,52.70
2023-04-03T08:13:53.643Z,52.96
2023-04-03T08:16:29.149Z,53.17
2023-04-03T08:18:59.778Z,53.70
2023-04-03T08:21:30.340Z,53.77
2023-04-03T08:24:00.667Z,53.53
2023-04-03T08:26:30.984Z,53.42
2023-04-03T08:29:01.292Z,53.49
2023-04-03T08:31:31.664Z,53.51
2023-04-03T08:34:01.929Z,53.66
2023-04-03T08:36:34.324Z,53.55
2023-04-03T08:39:05.242Z,53.88
2023-04-03T08:41:47.007Z,54.08
2023-04-03T08:44:49.736Z,54.02
2023-04-03T08:47:28.566Z,54.38
2023-04-03T08:50:05.433Z,54.37
2023-04-03T08:53:01.205Z,54.45
2023-04-03T08:55:44.195Z,54.60
2023-04-03T08:58:25.006Z,54.51
2023-04-03T09:01:03.498Z,54.40
2023-04-03T09:03:36.655Z,54.36
2023-04-03T09:06:17.143Z,54.53
2023-04-03T09:09:11.680Z,54.50
2023-04-03T09:12:03.613Z,54.55
2023-04-03T09:14:42.660Z,54.41
2023-04-03T09:17:34.563Z,54.57
2023-04-03T09:20:07.732Z,54.48
2023-04-03T09:22:49.759Z,54.43
2023-04-03T09:25:36.535Z,54.41
2023-04-03T09:28:13.166Z,54.27
2023-04-03T09:30:43.377Z,54.36
2023-04-03T09:33:15.057Z,54.26
2023-04-03T09:35:53.820Z,54.32
2023-04-03T09:38:25.795Z,54.31
2023-04-03T09:41:20.539Z,54.37
2023-04-03T09:43:59.284Z,54.32
2023-04-03T09:46:36.632Z,54.19
2023-04-03T09:49:10.175Z,54.19
2023-04-03T09:51:41.162Z,54.14
2023-04-03T09:54:42.975Z,54.16
2023-04-03T09:57:17.146Z,53.91
2023-04-03T10:00:05.119Z,53.70
2023-04-03T10:02:46.286Z,53.74
2023-04-03T10:05:34.293Z,54.03
2023-04-03T10:08:38.013Z,53.74
2023-04-03T10:11:20.627Z,54.03
2023-04-03T10:13:56.378Z,53.93
2023-04-03T10:16:36.048Z,53.77
2023-04-03T10:19:40.357Z,53.78
2023-04-03T10:22:20.488Z,53.89
2023-04-03T10:25:04.416Z,53.60
2023-04-03T10:27:57.456Z,53.71
2023-04-03T10:30:30.694Z,53.66
2023-04-03T10:33:26.799Z,53.74
2023-04-03T10:36:15.806Z,53.63
2023-04-03T10:38:49.741Z,53.51
2023-04-03T10:41:43.022Z,53.29
2023-04-03T10:44:50.350Z,53.36
2023-04-03T10:47:39.686Z,53.44
2023-04-03T10:50:31.349Z,53.58
2023-04-03T10:53:11.838Z,53.38
2023-04-03T10:55:53.426Z,53.46
2023-04-03T10:58:45.530Z,53.44
2023-04-03T11:01:25.177Z,53.33
2023-04-03T11:04:02.007Z,53.53
2023-04-03T11:06:51.019Z,53.56
2023-04-03T11:09:50.407Z,52.85
2023-04-03T11:12:32.889Z,52.66
2023-04-03T11:15:05.412Z,52.39
2023-04-03T11:17:47.689Z,52.22
2023-04-03T11:20:21.214Z,51.94
2023-04-03T11:22:58.094Z,51.68
2023-04-03T11:25:29.896Z,51.72
2023-04-03T11:28:01.779Z,51.93
2023-04-03T11:30:38.042Z,51.73
2023-04-03T11:33:32.165Z,51.55
2023-04-03T11:36:35.745Z,52.40
2023-04-03T11:39:26.446Z,52.13
2023-04-03T11:42:06.745Z,52.10
2023-04-03T11:44:43.032Z,52.18
2023-04-03T11:47:17.328Z,52.17
2023-04-03T11:50:01.649Z,52.18
2023-04-03T11:52:44.738Z,51.93
2023-04-03T11:55:24.487Z,52.01
2023-04-03T11:58:06.729Z,51.70
2023-04-03T12:00:55.051Z,51.61
2023-04-03T12:03:45.561Z,51.48
2023-04-03T12:06:20.048Z,51.59
2023-04-03T12:08:57.755Z,51.75
2023-04-03T12:11:34.250Z,51.41
2023-04-03T12:14:04.862Z,51.32
2023-04-03T12:16:49.438Z,51.12
2023-04-03T12:19:42.949Z,51.35
2023-04-03T12:22:20.234Z,51.25
2023-04-03T12:24:55.853Z,51.44
2023-04-03T12:27:42.065Z,50.97
2023-04-03T12:30:31.416Z,50.99
2023-04-03T12:33:27.540Z,51.05
2023-04-03T12:36:16.124Z,51.16
2023-04-03T12:39:09.793Z,50.71
2023-04-03T12:41:57.982Z,50.44
2023-04-03T12:44:57.488Z,50.29
2023-04-03T12:47:36.427Z,49.27
2023-04-03T12:50:19.863Z,49.92
2023-04-03T12:53:16.910Z,48.82
2023-04-03T12:55:47.268Z,48.95
2023-04-03T12:58:37.291Z,49.13
2023-04-03T13:01:18.437Z,47.89
2023-04-03T13:03:51.777Z,47.78
2023-04-03T13:06:26.227Z,47.25
2023-04-03T13:09:04.319Z,48.33
2023-04-03T13:11:40.179Z,47.46
2023-04-03T13:14:24.885Z,47.49
2023-04-03T13:17:10.325Z,47.53
2023-04-03T13:19:40.685Z,47.97
2023-04-03T13:22:31.989Z,47.66
2023-04-03T13:25:07.616Z,47.57
2023-04-03T13:27:38.393Z,47.62
2023-04-03T13:30:10.490Z,47.09
2023-04-03T13:32:40.919Z,47.22
2023-04-03T13:35:33.909Z,47.31
2023-04-03T13:38:26.386Z,46.44
2023-04-03T13:41:06.633Z,46.25
2023-04-03T13:45:40.638Z,45.72
2023-04-03T13:48:24.621Z,46.07
2023-04-03T13:51:10.943Z,45.12
2023-04-03T13:53:52.985Z,45.93
2023-04-03T13:56:34.536Z,46.06
2023-04-03T13:59:07.808Z,46.49
2023-04-03T14:01:59.193Z,47.24
2023-04-03T14:04:31.199Z,47.71
2023-04-03T14:07:01.970Z,48.24
2023-04-03T14:09:33.263Z,48.85
2023-04-03T14:12:11.328Z,49.76
2023-04-03T14:14:49.620Z,50.42
2023-04-03T14:17:25.751Z,51.18
2023-04-03T14:19:58.173Z,51.56
2023-04-03T14:22:32.104Z,52.10
2023-04-03T14:25:02.807Z,52.25
2023-04-03T14:27:44.520Z,52.67
2023-04-03T14:30:25.510Z,53.67
2023-04-03T14:32:56.904Z,55.24
2023-04-03T14:35:28.412Z,55.63
2023-04-03T14:37:59.074Z,55.31
2023-04-03T14:40:31.309Z,56.13
2023-04-03T14:43:01.743Z,56.24
2023-04-03T14:45:32.343Z,56.88
2023-04-03T14:48:03.206Z,56.61
2023-04-03T14:50:33.682Z,57.57
2023-04-03T14:53:03.996Z,58.46
2023-04-03T14:55:35.380Z,59.36
2023-04-03T14:58:05.735Z,59.38
2023-04-03T15:00:36.140Z,59.62
2023-04-03T15:03:07.383Z,59.25
2023-04-03T15:05:39.666Z,58.88
2023-04-03T15:08:25.040Z,58.15
2023-04-03T15:10:56.357Z,57.18
2023-04-03T15:13:27.719Z,57.01
2023-04-03T15:15:58.442Z,56.56
2023-04-03T15:18:31.559Z,56.67
2023-04-03T15:21:02.042Z,56.66
2023-04-03T15:23:33.325Z,57.54
2023-04-03T15:26:03.385Z,57.54
2023-04-03T15:28:42.795Z,57.43
2023-04-03T15:31:13.163Z,57.52
2023-04-03T15:33:43.844Z,57.43
2023-04-03T15:36:29.171Z,57.49
2023-04-03T15:39:04.124Z,57.71
2023-04-03T15:41:34.446Z,57.52
2023-04-03T15:44:04.786Z,57.76
2023-04-03T15:46:36.684Z,57.82
2023-04-03T15:49:06.980Z,57.93
2023-04-03T15:51:37.318Z,58.28
2023-04-03T15:54:08.485Z,58.07
2023-04-03T15:56:38.763Z,58.25
2023-04-03T15:59:09.098Z,58.70
2023-04-03T16:01:41.133Z,58.89
2023-04-03T16:04:13.004Z,59.29
2023-04-03T16:06:44.475Z,59.44
2023-04-03T16:09:15.280Z,59.79
2023-04-03T16:11:46.834Z,59.64
2023-04-03T16:14:17.204Z,59.74
2023-04-03T16:16:47.824Z,59.81
2023-04-03T16:19:18.333Z,59.70
2023-04-03T16:21:49.189Z,59.73
2023-04-03T16:24:19.652Z,59.66
2023-04-03T16:26:49.960Z,59.52
2023-04-03T16:29:20.209Z,59.48
2023-04-03T16:31:50.827Z,59.37
2023-04-03T16:34:21.357Z,59.73
2023-04-03T16:36:52.355Z,59.61
2023-04-03T16:39:24.138Z,59.57
2023-04-03T16:41:54.475Z,59.94
2023-04-03T16:44:25.026Z,60.29
2023-04-03T16:46:55.515Z,60.86
2023-04-03T16:49:25.896Z,60.94
2023-04-03T16:51:56.290Z,60.87
2023-04-03T16:54:26.580Z,61.05
2023-04-03T16:56:57.137Z,61.57
2023-04-03T16:59:28.057Z,62.03
2023-04-03T17:01:58.494Z,61.68
2023-04-03T17:04:29.634Z,61.74
2023-04-03T17:07:00.564Z,61.34
2023-04-03T17:09:30.899Z,61.49
2023-04-03T17:12:00.972Z,61.80
2023-04-03T17:14:31.043Z,61.88
2023-04-03T17:17:01.248Z,61.58
2023-04-03T17:19:32.192Z,61.38
2023-04-03T17:22:03.215Z,61.37
2023-04-03T17:24:33.498Z,61.40
2023-04-03T17:27:03.764Z,61.45
2023-04-03T17:29:34.369Z,61.44
2023-04-03T17:32:04.804Z,61.59
2023-04-03T17:34:36.026Z,61.57
2023-04-03T17:37:07.102Z,61.78
2023-04-03T17:39:37.464Z,61.89
2023-04-03T17:42:09.506Z,62.13
2023-04-03T17:44:39.889Z,62.09
2023-04-03T17:47:10.330Z,62.43
2023-04-03T17:49:40.533Z,62.33
2023-04-03T17:52:10.822Z,62.54
2023-04-03T17:54:41.145Z,62.39
2023-04-03T17:57:11.900Z,62.58
2023-04-03T17:59:42.269Z,62.64
2023-04-03T18:02:12.571Z,62.72
2023-04-03T18:04:43.018Z,62.83
2023-04-03T18:07:14.441Z,62.78
2023-04-03T18:09:44.500Z,62.92
2023-04-03T18:12:14.772Z,62.95
2023-04-03T18:14:45.234Z,63.20
2023-04-03T18:17:15.985Z,63.00
2023-04-03T18:19:46.246Z,63.10
2023-04-03T18:22:19.815Z,62.97
2023-04-03T18:24:51.293Z,63.00
2023-04-03T18:27:24.873Z,63.03
2023-04-03T18:30:00.662Z,63.21
2023-04-03T18:32:31.323Z,63.38
2023-04-03T18:35:03.450Z,63.51
2023-04-03T18:37:34.336Z,63.45
2023-04-03T18:40:04.653Z,63.27
2023-04-03T18:42:35.050Z,63.25
2023-04-03T18:45:08.283Z,63.23
2023-04-03T18:47:39.420Z,63.10
2023-04-03T18:50:10.874Z,63.14
2023-04-03T18:52:41.261Z,63.17
2023-04-03T18:55:13.674Z,63.04
2023-04-03T18:57:44.085Z,63.32
2023-04-03T19:00:16.157Z,63.32
2023-04-03T19:02:48.005Z,63.30
2023-04-03T19:05:20.260Z,63.10
2023-04-03T19:07:52.099Z,63.13
2023-04-03T19:10:22.659Z,63.02
2023-04-03T19:12:54.022Z,63.17
2023-04-03T19:18:12.977Z,63.34
2023-04-03T19:20:55.311Z,63.07
2023-04-03T19:23:35.283Z,63.39
2023-04-03T19:26:08.466Z,63.08
2023-04-03T19:28:40.795Z,63.26
2023-04-03T19:31:19.314Z,63.16
2023-04-03T19:33:50.747Z,63.40
2023-04-03T19:36:21.623Z,63.18
2023-04-03T19:38:52.064Z,63.43
2023-04-03T19:41:25.327Z,63.46
2023-04-03T19:43:57.815Z,63.42
2023-04-03T19:46:30.587Z,63.68
2023-04-03T19:49:01.087Z,63.54
2023-04-03T19:51:31.348Z,63.53
2023-04-03T19:54:01.658Z,63.30
2023-04-03T19:56:32.102Z,63.48
2023-04-03T19:59:02.669Z,63.79
2023-04-03T20:01:33.324Z,63.92
2023-04-03T20:04:04.431Z,63.62
2023-04-03T20:06:34.899Z,63.75
2023-04-03T20:09:05.036Z,64.11
2023-04-03T20:11:38.171Z,63.76
2023-04-03T20:14:09.539Z,63.77
2023-04-03T20:16:40.506Z,63.99
2023-04-03T20:19:12.030Z,64.15
2023-04-03T20:21:42.758Z,64.00
2023-04-03T20:24:14.386Z,63.83
2023-04-03T20:26:49.164Z,63.94
2023-04-03T20:29:20.251Z,63.92
2023-04-03T20:31:50.914Z,63.86
2023-04-03T20:34:21.408Z,64.31
2023-04-03T20:39:48.887Z,64.15
2023-04-03T20:42:19.026Z,64.64
2023-04-03T20:44:49.199Z,64.51
2023-04-03T20:47:29.063Z,64.73
2023-04-03T20:49:59.236Z,64.52
2023-04-03T20:52:29.338Z,64.53
2023-04-03T20:55:00.168Z,64.65
2023-04-03T20:57:30.483Z,64.78
2023-04-03T21:00:00.697Z,64.46
2023-04-03T21:02:30.953Z,64.80
2023-04-03T21:05:01.294Z,64.55
2023-04-03T21:08:08.474Z,64.90
2023-04-03T21:11:16.278Z,64.85
2023-04-03T21:14:24.058Z,64.95
2023-04-03T21:16:54.437Z,65.17
2023-04-03T21:19:24.628Z,64.92
2023-04-03T21:21:55.171Z,65.01
2023-04-03T21:24:30.143Z,64.83
2023-04-03T21:27:00.995Z,64.73
2023-04-03T21:29:32.098Z,65.11
2023-04-03T21:32:04.157Z,65.02
2023-04-03T21:34:34.981Z,65.11
2023-04-03T21:37:11.837Z,65.15
2023-04-03T21:39:42.666Z,65.27
2023-04-03T21:42:12.972Z,65.15
2023-04-03T21:44:44.077Z,65.20
2023-04-03T21:47:14.865Z,65.10
2023-04-03T21:49:45.216Z,65.12
2023-04-03T21:52:15.729Z,64.82
2023-04-03T21:54:46.001Z,64.82
2023-04-03T21:57:16.928Z,64.89
2023-04-03T21:59:47.939Z,65.12
2023-04-03T22:02:18.647Z,65.03
2023-04-03T22:04:50.047Z,65.02
2023-04-03T22:07:20.558Z,64.96
2023-04-03T22:09:51.252Z,64.97
2023-04-03T22:12:21.620Z,64.76
2023-04-03T22:14:52.078Z,64.97
2023-04-03T22:17:22.360Z,64.72
2023-04-03T22:19:52.857Z,64.68
2023-04-03T22:22:23.158Z,64.81
2023-04-03T22:24:54.684Z,64.65
2023-04-03T22:27:24.795Z,65.28
2023-04-03T22:29:55.073Z,65.42
2023-04-03T22:32:25.445Z,65.31
2023-04-03T22:34:55.626Z,65.38
2023-04-03T22:37:25.952Z,65.81
2023-04-03T22:39:56.348Z,65.60
2023-04-03T22:42:26.668Z,65.78
2023-04-03T22:44:57.244Z,65.50
2023-04-03T22:47:29.000Z,65.35
2023-04-03T22:49:59.381Z,65.59
2023-04-03T22:52:29.849Z,65.46
2023-04-03T22:55:06.311Z,65.40
2023-04-03T22:59:10.466Z,65.67
2023-04-03T23:01:41.956Z,65.43
2023-04-03T23:04:12.504Z,65.14
2023-04-03T23:06:42.640Z,65.50
2023-04-03T23:09:12.948Z,65.72
2023-04-03T23:11:43.725Z,65.52
2023-04-03T23:14:14.151Z,65.60
2023-04-03T23:16:44.565Z,65.74
2023-04-03T23:19:15.406Z,65.96
2023-04-03T23:21:45.803Z,65.96
2023-04-03T23:24:16.202Z,66.01
2023-04-03T23:26:46.583Z,66.12
2023-04-03T23:29:16.874Z,65.95
2023-04-03T23:31:47.250Z,65.91
2023-04-03T23:34:17.866Z,65.68
2023-04-03T23:36:48.228Z,66.03
2023-04-03T23:39:22.192Z,66.11
2023-04-03T23:41:52.682Z,66.53
2023-04-03T23:44:23.938Z,66.49
2023-04-03T23:46:53.938Z,66.33
2023-04-03T23:49:24.382Z,66.32
2023-04-03T23:51:54.683Z,66.62
2023-04-03T23:54:26.180Z,66.34
2023-04-03T23:56:56.399Z,66.59
2023-04-03T23:59:26.622Z,66.75
